»·PEaware :: DCM205 KLAS-KSAN

DCM205 :: KLAS-KSAN

FLIGHT INFORMATION

Flight Status: Arrived
Operator: DotCom
More flights by this operator :: More flights under this callsign
Pilot: Chris S. (2433)
Aircraft: AIRBUS A320
(A320)
More flights by this aircraft type
Origin: KLAS McCarran Intl
United States
Destination: KSAN San Diego Intl-Lindbergh
United States
More flights between these airports :: More routes between these airports
Route: +BOACH8 LVELL LUCKI1
File this flight plan on PilotEdge
Remarks:
Altitude:
(Current/Filed)
34,000ft
Speed:
(Current/Filed)
450kts
Departed: 23-Mar-20 10:04 AM
Arrived: 23-Mar-20 10:56 AM
Distance/Time
Traveled:
225nm/0:52
Distance/Time
To Go:
Arrived

Flight Plot

Page will automatically refresh every two minutes.

Flight plan parsing failed; only flown route is shown


Map Options




Map Legend


Flown Route
Filed Route
Departure Airport
Arrival Airport
Navaid (VOR, NDB)
Fix

Horizontal Profiles

Position Reports

Time Latitude Longitude Heading Altitude Ground
Speed
23-Mar-20 09:49 36.081597 -115.171231 90 2195ft 0kts
23-Mar-20 09:50 36.081597 -115.171231 90 2195ft 0kts
23-Mar-20 09:51 36.081597 -115.171231 90 2195ft 0kts
23-Mar-20 09:52 36.081597 -115.171231 90 2195ft 0kts
23-Mar-20 09:53 36.081597 -115.171231 90 2195ft 0kts
23-Mar-20 09:54 36.081597 -115.171230 90 2195ft 0kts
23-Mar-20 09:55 36.081597 -115.171229 90 2195ft 0kts
23-Mar-20 09:56 36.081597 -115.171228 90 2195ft 0kts
23-Mar-20 09:57 36.081597 -115.171227 90 2195ft 0kts
23-Mar-20 09:58 36.081890 -115.169154 59 2195ft 14kts
23-Mar-20 09:59 36.086815 -115.166091 24 2195ft 22kts
23-Mar-20 10:00 36.092611 -115.162711 27 2195ft 23kts
23-Mar-20 10:01 36.098769 -115.159313 24 2195ft 24kts
23-Mar-20 10:02 36.098750 -115.157245 118 2195ft 11kts
23-Mar-20 10:03 36.082497 -115.165881 207 2218ft 163kts
23-Mar-20 10:04 36.036681 -115.185451 214 4362ft 192kts
23-Mar-20 10:05 35.996598 -115.244122 241 6201ft 254kts
23-Mar-20 10:06 35.951571 -115.305505 191 7195ft 255kts
23-Mar-20 10:07 35.878614 -115.312343 190 10200ft 266kts
23-Mar-20 10:08 35.803118 -115.309307 178 13077ft 278kts
23-Mar-20 10:09 35.724419 -115.299948 180 15563ft 289kts
23-Mar-20 10:10 35.642770 -115.295578 187 17825ft 296kts
23-Mar-20 10:11 35.559202 -115.299489 189 20013ft 303kts
23-Mar-20 10:12 35.474378 -115.302741 191 22043ft 307kts
23-Mar-20 10:13 35.388505 -115.306177 193 23873ft 310kts
23-Mar-20 10:14 35.301489 -115.309636 194 25274ft 319kts
23-Mar-20 10:15 35.207284 -115.313566 193 25674ft 361kts
23-Mar-20 10:16 35.102073 -115.317468 192 26205ft 388kts
23-Mar-20 10:17 34.993734 -115.321670 193 27350ft 393kts
23-Mar-20 10:18 34.883455 -115.325945 193 28395ft 399kts
23-Mar-20 10:19 34.772822 -115.334500 204 29456ft 384kts
23-Mar-20 10:20 34.675535 -115.377278 210 30794ft 369kts
23-Mar-20 10:21 34.579118 -115.419150 210 32039ft 364kts
23-Mar-20 10:22 34.486249 -115.459619 210 33633ft 347kts
23-Mar-20 10:23 34.395055 -115.499471 210 34173ft 353kts
23-Mar-20 10:24 34.303721 -115.544929 219 34165ft 350kts
23-Mar-20 10:25 34.221049 -115.606964 218 34163ft 350kts
23-Mar-20 10:26 34.129337 -115.653015 211 34203ft 359kts
23-Mar-20 10:27 34.036360 -115.696903 212 34122ft 359kts
23-Mar-20 10:28 33.943360 -115.740643 212 34122ft 359kts
23-Mar-20 10:29 33.851275 -115.785253 213 33166ft 351kts
23-Mar-20 10:30 33.760392 -115.829848 212 30347ft 350kts
23-Mar-20 10:31 33.670546 -115.871673 212 28078ft 339kts
23-Mar-20 10:32 33.584232 -115.912047 212 25898ft 327kts
23-Mar-20 10:33 33.506365 -115.960194 231 24120ft 302kts
23-Mar-20 10:34 33.458335 -116.042297 238 24132ft 302kts
23-Mar-20 10:35 33.410653 -116.124192 237 22895ft 298kts
23-Mar-20 10:36 33.362528 -116.206874 238 20602ft 298kts
23-Mar-20 10:37 33.303165 -116.271606 214 19349ft 295kts
23-Mar-20 10:38 33.229935 -116.312785 214 18029ft 289kts
23-Mar-20 10:39 33.157960 -116.355112 214 16554ft 288kts
23-Mar-20 10:40 33.086152 -116.397038 213 15173ft 287kts
23-Mar-20 10:41 33.014450 -116.438850 213 13766ft 285kts
23-Mar-20 10:42 32.954148 -116.495738 226 12437ft 268kts
23-Mar-20 10:43 32.898821 -116.551814 224 11016ft 260kts
23-Mar-20 10:44 32.843553 -116.607452 223 9632ft 260kts
23-Mar-20 10:45 32.788675 -116.662765 222 8294ft 256kts
23-Mar-20 10:46 32.748572 -116.731363 243 6713ft 248kts
23-Mar-20 10:47 32.717918 -116.796182 241 6056ft 207kts
23-Mar-20 10:48 32.694868 -116.858876 251 5443ft 204kts
23-Mar-20 10:49 32.675670 -116.922634 251 4286ft 202kts
23-Mar-20 10:50 32.682900 -116.980572 283 3478ft 169kts
23-Mar-20 10:51 32.694811 -117.029887 283 2693ft 152kts
23-Mar-20 10:52 32.705904 -117.075681 283 2078ft 142kts
23-Mar-20 10:53 32.716454 -117.117474 284 1446ft 135kts
23-Mar-20 10:54 32.726603 -117.161091 283 538ft 131kts
23-Mar-20 10:55 32.734501 -117.193769 278 29ft 21kts
23-Mar-20 10:56 32.734407 -117.197488 291 29ft 17kts
23-Mar-20 10:57 32.732854 -117.199999 190 29ft 11kts
23-Mar-20 10:58 32.732917 -117.199693 333 29ft 0kts
23-Mar-20 10:59 32.732917 -117.199693 333 29ft 0kts
23-Mar-20 11:00 32.732917 -117.199693 333 29ft 0kts
23-Mar-20 11:02 32.732917 -117.199693 333 29ft 0kts
23-Mar-20 11:03 32.732917 -117.199693 333 29ft 0kts
23-Mar-20 11:04 32.732917 -117.199693 333 29ft 0kts
23-Mar-20 11:05 32.732917 -117.199693 333 29ft 0kts
23-Mar-20 11:06 32.732917 -117.199693 333 29ft 0kts
23-Mar-20 11:07 32.732917 -117.199693 333 29ft 0kts
23-Mar-20 11:08 32.732917 -117.199693 333 29ft 0kts
23-Mar-20 11:09 32.732917 -117.199693 333 29ft 0kts
23-Mar-20 11:10 32.732917 -117.199693 333 29ft 0kts

Navigation Log

Ident Type
Flight plan parsing failed, navigation log unavailable